createdAt,value
2023-11-25T00:00:28.565Z,6.05
2023-11-25T00:02:57.856Z,6.53
2023-11-25T00:05:26.082Z,7.10
2023-11-25T00:07:54.450Z,5.47
2023-11-25T00:10:23.998Z,6.68
2023-11-25T00:12:54.487Z,5.32
2023-11-25T00:15:24.989Z,5.30
2023-11-25T00:17:53.709Z,5.43
2023-11-25T00:20:23.485Z,5.57
2023-11-25T00:22:53.397Z,5.32
2023-11-25T00:25:25.342Z,5.85
2023-11-25T00:27:55.196Z,4.88
2023-11-25T00:30:25.213Z,5.55
2023-11-25T00:32:55.051Z,5.55
2023-11-25T00:35:23.531Z,4.63
2023-11-25T00:37:51.987Z,5.50
2023-11-25T00:40:20.933Z,6.68
2023-11-25T00:42:49.350Z,6.68
2023-11-25T00:45:19.321Z,6.15
2023-11-25T00:47:47.642Z,5.68
2023-11-25T00:50:18.013Z,6.43
2023-11-25T00:52:46.429Z,6.17
2023-11-25T00:55:14.862Z,5.95
2023-11-25T00:57:43.194Z,5.93
2023-11-25T01:00:17.008Z,4.97
2023-11-25T01:02:47.310Z,5.88
2023-11-25T01:05:15.744Z,6.20
2023-11-25T01:07:44.105Z,6.45
2023-11-25T01:10:12.945Z,4.85
2023-11-25T01:12:41.334Z,4.75
2023-11-25T01:15:12.852Z,6.85
2023-11-25T01:17:41.276Z,6.13
2023-11-25T01:20:12.512Z,4.68
2023-11-25T01:22:41.308Z,4.88
2023-11-25T01:25:10.693Z,6.18
2023-11-25T01:27:40.055Z,6.07
2023-11-25T01:30:09.810Z,4.55
2023-11-25T01:32:38.186Z,4.53
2023-11-25T01:35:07.893Z,5.15
2023-11-25T01:37:37.911Z,5.60
2023-11-25T01:40:11.744Z,4.15
2023-11-25T01:42:40.478Z,4.97
2023-11-25T01:45:10.865Z,5.70
2023-11-25T01:47:39.614Z,6.50
2023-11-25T01:50:09.203Z,5.72
2023-11-25T01:52:39.707Z,7.13
2023-11-25T01:55:10.183Z,6.72
2023-11-25T01:57:38.953Z,4.60
2023-11-25T02:00:10.622Z,5.80
2023-11-25T02:02:39.146Z,5.65
2023-11-25T02:05:09.179Z,5.28
2023-11-25T02:07:39.211Z,5.05
2023-11-25T02:10:10.781Z,4.90
2023-11-25T02:12:40.833Z,5.10
2023-11-25T02:15:12.883Z,4.43
2023-11-25T02:17:43.924Z,4.95
2023-11-25T02:20:12.042Z,5.88
2023-11-25T02:22:42.034Z,5.35
2023-11-25T02:25:11.888Z,6.25
2023-11-25T02:27:40.714Z,5.47
2023-11-25T02:30:10.402Z,4.68
2023-11-25T02:32:39.033Z,4.88
2023-11-25T02:35:07.772Z,4.57
2023-11-25T02:37:36.145Z,5.20
2023-11-25T02:40:05.638Z,5.00
2023-11-25T02:42:36.496Z,5.43
2023-11-25T02:45:05.253Z,5.38
2023-11-25T02:47:34.696Z,4.45
2023-11-25T02:50:03.392Z,4.45
2023-11-25T02:52:31.778Z,5.00
2023-11-25T02:55:00.040Z,5.30
2023-11-25T02:57:29.434Z,5.13
2023-11-25T03:00:00.485Z,5.72
2023-11-25T03:04:56.995Z,4.55
2023-11-25T03:07:25.553Z,4.80
2023-11-25T03:09:53.914Z,5.65
2023-11-25T03:12:23.815Z,5.30
2023-11-25T03:14:52.204Z,3.55
2023-11-25T03:17:22.046Z,3.63
2023-11-25T03:19:50.795Z,4.75
2023-11-25T03:22:19.233Z,4.18
2023-11-25T03:24:48.086Z,5.22
2023-11-25T03:27:16.592Z,3.65
2023-11-25T03:29:44.909Z,4.03
2023-11-25T03:32:15.495Z,5.05
2023-11-25T03:34:45.788Z,3.38
2023-11-25T03:37:14.538Z,5.20
2023-11-25T03:39:41.934Z,4.65
2023-11-25T03:42:10.273Z,4.45
2023-11-25T03:44:39.135Z,4.78
2023-11-25T03:47:07.469Z,4.75
2023-11-25T03:49:36.791Z,4.55
2023-11-25T03:52:07.080Z,4.45
2023-11-25T03:54:35.534Z,4.07
2023-11-25T03:57:03.940Z,4.28
2023-11-25T03:59:32.357Z,3.45
2023-11-25T04:02:00.874Z,4.15
2023-11-25T04:04:29.294Z,4.28
2023-11-25T04:06:57.666Z,4.25
2023-11-25T04:09:27.532Z,4.47
2023-11-25T04:11:55.849Z,4.43
2023-11-25T04:14:26.762Z,4.38
2023-11-25T04:16:55.068Z,4.88
2023-11-25T04:19:23.499Z,3.03
2023-11-25T04:21:52.254Z,4.18
2023-11-25T04:24:20.648Z,3.63
2023-11-25T04:26:50.828Z,3.55
2023-11-25T04:29:21.197Z,4.40
2023-11-25T04:31:51.028Z,4.23
2023-11-25T04:34:19.340Z,3.63
2023-11-25T04:36:47.719Z,4.22
2023-11-25T04:39:17.160Z,3.70
2023-11-25T04:41:47.082Z,3.63
2023-11-25T04:44:16.746Z,4.82
2023-11-25T04:46:47.054Z,5.03
2023-11-25T04:49:15.472Z,3.47
2023-11-25T04:51:46.189Z,3.28
2023-11-25T04:54:14.661Z,4.47
2023-11-25T04:56:42.978Z,3.33
2023-11-25T04:59:11.850Z,3.40
2023-11-25T05:01:41.758Z,3.92
2023-11-25T05:04:10.429Z,3.28
2023-11-25T05:06:39.768Z,3.28
2023-11-25T05:09:09.078Z,3.70
2023-11-25T05:11:38.971Z,3.63
2023-11-25T05:14:07.346Z,4.10
2023-11-25T05:16:35.690Z,3.50
2023-11-25T05:19:05.463Z,3.80
2023-11-25T05:21:33.785Z,4.65
2023-11-25T05:24:02.100Z,4.32
2023-11-25T05:26:30.373Z,4.10
2023-11-25T05:29:01.139Z,2.40
2023-11-25T05:31:29.514Z,4.95
2023-11-25T05:33:57.798Z,4.25
2023-11-25T05:36:27.938Z,4.25
2023-11-25T05:38:56.250Z,3.33
2023-11-25T05:41:24.654Z,4.38
2023-11-25T05:43:59.038Z,3.53
2023-11-25T05:46:27.516Z,3.03
2023-11-25T05:48:56.341Z,2.85
2023-11-25T05:51:33.763Z,3.60
2023-11-25T05:54:02.167Z,2.70
2023-11-25T05:56:30.673Z,3.50
2023-11-25T05:58:59.012Z,3.17
2023-11-25T06:01:28.180Z,3.55
2023-11-25T06:03:56.624Z,3.55
2023-11-25T06:06:26.482Z,4.22
2023-11-25T06:08:54.794Z,3.47
2023-11-25T06:11:23.555Z,3.20
2023-11-25T06:13:52.089Z,3.08
2023-11-25T06:16:20.468Z,3.80
2023-11-25T06:18:49.593Z,2.95
2023-11-25T06:21:17.943Z,2.40
2023-11-25T06:23:48.125Z,2.95
2023-11-25T06:26:16.586Z,2.83
2023-11-25T06:28:45.830Z,2.90
2023-11-25T06:31:15.398Z,3.03
2023-11-25T06:33:44.330Z,2.60
2023-11-25T06:36:12.952Z,4.32
2023-11-25T06:38:42.149Z,3.50
2023-11-25T06:41:13.552Z,3.00
2023-11-25T06:43:45.071Z,3.15
2023-11-25T06:46:13.744Z,3.60
2023-11-25T06:48:42.056Z,3.25
2023-11-25T06:51:13.034Z,2.67
2023-11-25T06:56:12.967Z,2.75
2023-11-25T07:01:09.374Z,2.00
2023-11-25T07:03:37.741Z,2.58
2023-11-25T07:06:06.858Z,3.60
2023-11-25T07:08:35.306Z,3.88
2023-11-25T07:11:06.339Z,2.38
2023-11-25T07:16:05.937Z,2.17
2023-11-25T07:18:34.727Z,2.60
2023-11-25T07:21:03.175Z,2.22
2023-11-25T07:23:31.442Z,3.35
2023-11-25T07:26:00.490Z,2.38
2023-11-25T07:28:28.966Z,3.20
2023-11-25T07:30:58.724Z,2.45
2023-11-25T07:33:27.063Z,2.50
2023-11-25T07:35:55.567Z,3.10
2023-11-25T07:38:24.518Z,2.80
2023-11-25T07:40:53.010Z,1.98
2023-11-25T07:43:21.436Z,2.90
2023-11-25T07:45:49.765Z,2.47
2023-11-25T07:48:20.659Z,2.50
2023-11-25T07:53:24.212Z,2.47
2023-11-25T07:55:53.564Z,2.08
2023-11-25T07:58:24.255Z,2.72
2023-11-25T08:00:52.664Z,2.30
2023-11-25T08:03:22.666Z,3.88
2023-11-25T08:05:51.094Z,3.17
2023-11-25T08:08:19.467Z,2.25
2023-11-25T08:10:47.944Z,2.85
2023-11-25T08:13:19.591Z,2.03
2023-11-25T08:15:48.405Z,2.58
2023-11-25T08:18:18.171Z,2.22
2023-11-25T08:20:48.620Z,2.75
2023-11-25T08:23:17.658Z,2.63
2023-11-25T08:25:46.209Z,2.67
2023-11-25T08:28:14.678Z,2.35
2023-11-25T08:30:43.007Z,2.45
2023-11-25T08:33:11.840Z,2.38
2023-11-25T08:35:40.812Z,1.70
2023-11-25T08:38:10.479Z,2.42
2023-11-25T08:40:43.680Z,3.08
2023-11-25T08:48:14.192Z,2.17
2023-11-25T08:50:42.953Z,2.75
2023-11-25T08:53:13.023Z,2.58
2023-11-25T08:55:42.090Z,6.47
2023-11-25T08:58:11.177Z,2.92
2023-11-25T09:00:40.074Z,3.83
2023-11-25T09:03:09.588Z,5.45
2023-11-25T09:05:41.866Z,3.80
2023-11-25T09:08:11.528Z,2.65
2023-11-25T09:10:41.398Z,2.15
2023-11-25T09:13:09.851Z,3.47
2023-11-25T09:15:41.947Z,4.68
2023-11-25T09:18:11.639Z,1.67
2023-11-25T09:20:39.987Z,3.65
2023-11-25T09:23:08.392Z,3.15
2023-11-25T09:25:36.749Z,4.53
2023-11-25T09:28:06.530Z,2.35
2023-11-25T09:30:36.039Z,2.58
2023-11-25T09:33:04.494Z,3.63
2023-11-25T09:35:32.822Z,3.15
2023-11-25T09:38:01.237Z,3.22
2023-11-25T09:40:31.191Z,2.70
2023-11-25T09:43:00.514Z,2.67
2023-11-25T09:45:31.085Z,2.28
2023-11-25T09:47:59.426Z,3.05
2023-11-25T09:50:27.677Z,2.03
2023-11-25T09:52:56.884Z,3.10
2023-11-25T09:55:26.283Z,2.85
2023-11-25T09:58:01.064Z,2.25
2023-11-25T10:00:31.200Z,1.90
2023-11-25T10:03:02.355Z,5.73
2023-11-25T10:05:33.779Z,4.72
2023-11-25T10:08:02.619Z,3.67
2023-11-25T10:10:31.245Z,3.25
2023-11-25T10:13:01.559Z,2.03
2023-11-25T10:15:32.562Z,3.30
2023-11-25T10:18:01.025Z,2.17
2023-11-25T10:20:31.815Z,2.47
2023-11-25T10:23:00.745Z,2.17
2023-11-25T10:25:30.313Z,2.60
2023-11-25T10:27:58.874Z,4.45
2023-11-25T10:30:29.855Z,2.08
2023-11-25T10:33:03.020Z,3.03
2023-11-25T10:35:31.497Z,2.30
2023-11-25T10:40:32.517Z,2.65
2023-11-25T10:43:05.425Z,2.90
2023-11-25T10:45:34.090Z,2.88
2023-11-25T10:48:05.503Z,1.85
2023-11-25T10:50:34.093Z,4.38
2023-11-25T10:53:06.609Z,2.03
2023-11-25T10:55:36.047Z,4.82
2023-11-25T10:58:06.698Z,3.67
2023-11-25T11:00:36.134Z,3.88
2023-11-25T11:03:10.667Z,2.60
2023-11-25T11:05:46.884Z,3.30
2023-11-25T11:08:20.539Z,3.85
2023-11-25T11:11:00.588Z,6.45
2023-11-25T11:13:36.060Z,2.97
2023-11-25T11:16:11.949Z,3.20
2023-11-25T11:18:43.594Z,7.13
2023-11-25T11:21:12.763Z,2.33
2023-11-25T11:23:41.675Z,2.30
2023-11-25T11:26:24.843Z,2.78
2023-11-25T11:29:05.290Z,5.25
2023-11-25T11:31:59.744Z,6.13
2023-11-25T11:34:31.619Z,3.28
2023-11-25T11:37:01.418Z,3.28
2023-11-25T11:39:39.719Z,3.85
2023-11-25T11:42:34.425Z,9.30
2023-11-25T11:45:23.566Z,5.20
2023-11-25T11:47:55.193Z,6.90
2023-11-25T11:50:29.279Z,4.60
2023-11-25T11:53:16.992Z,7.13
2023-11-25T11:55:51.685Z,5.47
2023-11-25T11:58:20.952Z,7.47
2023-11-25T12:00:51.234Z,7.00
2023-11-25T12:03:20.835Z,6.67
2023-11-25T12:05:52.704Z,4.78
2023-11-25T12:08:21.537Z,7.22
2023-11-25T12:10:50.282Z,9.02
2023-11-25T12:13:27.565Z,4.60
2023-11-25T12:16:00.453Z,4.10
2023-11-25T12:18:29.692Z,5.55
2023-11-25T12:21:02.415Z,3.60
2023-11-25T12:23:44.416Z,8.68
2023-11-25T12:26:24.512Z,4.43
2023-11-25T12:28:53.404Z,8.48
2023-11-25T12:31:22.352Z,9.45
2023-11-25T12:33:51.105Z,7.50
2023-11-25T12:36:23.473Z,9.50
2023-11-25T12:38:52.215Z,7.75
2023-11-25T12:41:22.646Z,8.18
2023-11-25T12:44:10.997Z,9.10
2023-11-25T12:46:40.610Z,5.28
2023-11-25T12:49:22.814Z,11.02
2023-11-25T12:51:54.543Z,6.35
2023-11-25T12:54:23.554Z,5.65
2023-11-25T12:56:54.004Z,3.70
2023-11-25T12:59:24.867Z,12.45
2023-11-25T13:01:53.804Z,4.80
2023-11-25T13:04:25.114Z,4.97
2023-11-25T13:07:00.921Z,5.40
2023-11-25T13:09:31.712Z,7.53
2023-11-25T13:12:00.505Z,4.03
2023-11-25T13:14:31.206Z,9.45
2023-11-25T13:17:00.189Z,6.28
2023-11-25T13:19:29.429Z,6.40
2023-11-25T13:22:00.020Z,13.02
2023-11-25T13:24:28.952Z,10.73
2023-11-25T13:26:58.018Z,16.67
2023-11-25T13:29:26.774Z,17.67
2023-11-25T13:31:55.732Z,16.40
2023-11-25T13:34:25.603Z,15.32
2023-11-25T13:36:55.910Z,21.02
2023-11-25T13:39:29.191Z,24.70
2023-11-25T13:41:58.045Z,19.50
2023-11-25T13:44:27.523Z,17.73
2023-11-25T13:46:56.609Z,18.00
2023-11-25T13:49:30.362Z,14.82
2023-11-25T13:51:59.264Z,11.75
2023-11-25T13:54:30.277Z,10.95
2023-11-25T13:56:59.517Z,12.00
2023-11-25T13:59:28.426Z,16.30
2023-11-25T14:01:58.185Z,7.03
2023-11-25T14:04:27.216Z,14.75
2023-11-25T14:06:59.179Z,12.65
2023-11-25T14:09:29.674Z,9.73
2023-11-25T14:11:58.705Z,11.98
2023-11-25T14:14:27.880Z,12.55
2023-11-25T14:16:57.155Z,11.55
2023-11-25T14:19:26.439Z,11.82
2023-11-25T14:21:55.758Z,10.85
2023-11-25T14:24:24.658Z,8.20
2023-11-25T14:26:55.818Z,15.23
2023-11-25T14:29:25.131Z,6.75
2023-11-25T14:31:53.910Z,9.35
2023-11-25T14:34:23.365Z,11.50
2023-11-25T14:36:52.368Z,6.40
2023-11-25T14:39:41.930Z,7.47
2023-11-25T14:42:17.537Z,5.75
2023-11-25T14:44:48.078Z,11.77
2023-11-25T14:47:17.629Z,5.47
2023-11-25T14:49:46.752Z,5.30
2023-11-25T14:52:16.347Z,7.45
2023-11-25T14:54:45.396Z,6.72
2023-11-25T14:57:14.361Z,3.33
2023-11-25T14:59:44.963Z,4.80
2023-11-25T15:02:13.975Z,5.35
2023-11-25T15:04:43.075Z,4.82
2023-11-25T15:07:11.981Z,7.43
2023-11-25T15:09:40.900Z,7.22
2023-11-25T15:12:11.677Z,4.43
2023-11-25T15:14:40.744Z,4.95
2023-11-25T15:17:11.653Z,5.68
2023-11-25T15:22:11.409Z,5.97
2023-11-25T15:24:40.491Z,3.33
2023-11-25T15:27:09.468Z,4.78
2023-11-25T15:29:38.460Z,5.38
2023-11-25T15:32:07.878Z,6.38
2023-11-25T15:34:39.292Z,4.82
2023-11-25T15:37:08.221Z,7.88
2023-11-25T15:39:37.546Z,4.57
2023-11-25T15:42:06.932Z,5.18
2023-11-25T15:44:35.709Z,2.92
2023-11-25T15:47:06.109Z,5.97
2023-11-25T15:49:35.109Z,4.63
2023-11-25T15:52:05.967Z,3.17
2023-11-25T15:54:34.880Z,6.75
2023-11-25T15:57:03.893Z,3.95
2023-11-25T15:59:33.410Z,5.57
2023-11-25T16:02:02.492Z,2.45
2023-11-25T16:04:31.899Z,5.03
2023-11-25T16:07:00.882Z,3.10
2023-11-25T16:09:32.543Z,5.53
2023-11-25T16:12:02.818Z,2.10
2023-11-25T16:14:31.829Z,4.97
2023-11-25T16:17:00.773Z,6.75
2023-11-25T16:19:29.624Z,4.63
2023-11-25T16:21:58.525Z,4.20
2023-11-25T16:24:30.195Z,5.38
2023-11-25T16:27:00.561Z,3.35
2023-11-25T16:29:29.489Z,5.38
2023-11-25T16:31:58.577Z,6.28
2023-11-25T16:34:27.980Z,5.07
2023-11-25T16:36:56.803Z,3.85
2023-11-25T16:39:25.700Z,4.28
2023-11-25T16:41:54.790Z,2.25
2023-11-25T16:44:25.359Z,5.35
2023-11-25T16:46:55.861Z,3.47
2023-11-25T16:49:37.500Z,4.57
2023-11-25T16:52:10.796Z,3.05
2023-11-25T16:54:40.299Z,3.28
2023-11-25T16:57:10.402Z,4.78
2023-11-25T16:59:40.939Z,3.42
2023-11-25T17:02:10.333Z,4.57
2023-11-25T17:04:39.866Z,4.65
2023-11-25T17:07:10.578Z,4.60
2023-11-25T17:09:39.645Z,3.60
2023-11-25T17:12:09.511Z,2.15
2023-11-25T17:14:40.498Z,3.25
2023-11-25T17:19:39.599Z,7.07
2023-11-25T17:22:10.565Z,7.18
2023-11-25T17:24:39.612Z,3.88
2023-11-25T17:27:08.730Z,2.70
2023-11-25T17:29:37.968Z,5.07
2023-11-25T17:32:10.344Z,5.30
2023-11-25T17:34:39.697Z,5.07
2023-11-25T17:37:08.708Z,3.17
2023-11-25T17:39:39.940Z,6.25
2023-11-25T17:42:09.990Z,6.90
2023-11-25T17:44:39.017Z,4.85
2023-11-25T17:47:10.542Z,4.05
2023-11-25T17:49:39.629Z,3.55
2023-11-25T17:52:11.521Z,5.68
2023-11-25T17:54:40.707Z,2.33
2023-11-25T17:57:10.133Z,3.03
2023-11-25T17:59:38.247Z,3.45
2023-11-25T18:02:08.674Z,1.90
2023-11-25T18:04:38.239Z,2.58
2023-11-25T18:07:08.288Z,5.60
2023-11-25T18:09:37.098Z,5.10
2023-11-25T18:12:06.756Z,4.18
2023-11-25T18:14:35.646Z,1.83
2023-11-25T18:17:04.704Z,2.47
2023-11-25T18:19:35.325Z,3.72
2023-11-25T18:22:04.218Z,1.92
2023-11-25T18:24:33.092Z,3.58
2023-11-25T18:27:02.029Z,6.55
2023-11-25T18:29:31.103Z,5.05
2023-11-25T18:32:00.403Z,4.80
2023-11-25T18:34:29.357Z,3.25
2023-11-25T18:37:02.530Z,3.17
2023-11-25T18:39:31.345Z,0.80
2023-11-25T18:42:00.375Z,2.95
2023-11-25T18:44:29.292Z,3.55
2023-11-25T18:46:58.852Z,3.03
2023-11-25T18:49:27.819Z,2.30
2023-11-25T18:52:02.749Z,2.55
2023-11-25T18:54:34.381Z,2.88
2023-11-25T18:57:04.344Z,4.07
2023-11-25T18:59:33.195Z,5.97
2023-11-25T19:02:02.034Z,3.42
2023-11-25T19:04:31.022Z,3.65
2023-11-25T19:06:59.991Z,1.63
2023-11-25T19:09:28.805Z,4.18
2023-11-25T19:11:59.210Z,2.92
2023-11-25T19:14:31.316Z,3.50
2023-11-25T19:17:00.256Z,2.90
2023-11-25T19:19:29.154Z,1.48
2023-11-25T19:21:58.990Z,2.72
2023-11-25T19:24:27.930Z,4.15
2023-11-25T19:26:58.710Z,1.65
2023-11-25T19:29:28.489Z,3.20
2023-11-25T19:31:58.772Z,2.28
2023-11-25T19:34:29.881Z,3.33
2023-11-25T19:39:35.803Z,3.47
2023-11-25T19:42:11.855Z,3.28
2023-11-25T19:44:45.476Z,2.28
2023-11-25T19:47:22.226Z,1.05
2023-11-25T19:49:54.929Z,2.38
2023-11-25T19:52:27.181Z,4.32
2023-11-25T19:54:59.558Z,1.42
2023-11-25T19:57:38.026Z,1.40
2023-11-25T20:00:11.279Z,4.20
2023-11-25T20:02:46.396Z,3.50
2023-11-25T20:05:18.163Z,3.13
2023-11-25T20:07:49.414Z,4.55
2023-11-25T20:10:20.760Z,3.35
2023-11-25T20:12:53.247Z,1.52
2023-11-25T20:15:24.774Z,2.55
2023-11-25T20:17:55.399Z,3.78
2023-11-25T20:20:25.719Z,2.00
2023-11-25T20:22:55.478Z,2.07
2023-11-25T20:25:24.928Z,2.25
2023-11-25T20:27:55.242Z,1.77
2023-11-25T20:30:25.407Z,2.40
2023-11-25T20:32:55.127Z,2.17
2023-11-25T20:35:25.043Z,2.05
2023-11-25T20:37:53.954Z,1.67
2023-11-25T20:40:24.295Z,1.90
2023-11-25T20:42:56.839Z,1.70
2023-11-25T20:45:27.714Z,1.80
2023-11-25T20:47:57.316Z,1.10
2023-11-25T20:50:27.397Z,1.95
2023-11-25T20:52:56.705Z,1.90
2023-11-25T20:55:26.835Z,1.55
2023-11-25T20:57:57.216Z,2.00
2023-11-25T21:00:26.203Z,2.67
2023-11-25T21:02:55.727Z,1.75
2023-11-25T21:05:24.744Z,2.97
2023-11-25T21:07:53.936Z,1.27
2023-11-25T21:10:22.772Z,2.25
2023-11-25T21:12:51.686Z,2.00
2023-11-25T21:15:22.467Z,2.03
2023-11-25T21:17:51.397Z,2.08
2023-11-25T21:20:20.244Z,1.05
2023-11-25T21:22:49.170Z,1.60
2023-11-25T21:25:22.924Z,2.00
2023-11-25T21:27:54.684Z,1.73
2023-11-25T21:30:25.594Z,3.17
2023-11-25T21:32:54.470Z,2.15
2023-11-25T21:35:23.301Z,0.82
2023-11-25T21:37:52.204Z,2.33
2023-11-25T21:40:23.765Z,1.25
2023-11-25T21:42:53.105Z,1.38
2023-11-25T21:45:21.897Z,1.38
2023-11-25T21:47:52.128Z,2.15
2023-11-25T21:50:20.831Z,2.03
2023-11-25T21:52:50.267Z,1.33
2023-11-25T21:55:19.160Z,1.25
2023-11-25T21:57:47.769Z,2.40
2023-11-25T22:00:17.436Z,1.80
2023-11-25T22:02:46.229Z,1.75
2023-11-25T22:05:16.306Z,1.33
2023-11-25T22:07:44.990Z,2.47
2023-11-25T22:10:24.531Z,1.63
2023-11-25T22:12:58.126Z,1.08
2023-11-25T22:15:26.921Z,1.40
2023-11-25T22:17:55.531Z,1.60
2023-11-25T22:20:26.117Z,1.17
2023-11-25T22:22:56.082Z,1.17
2023-11-25T22:25:35.573Z,0.73
2023-11-25T22:28:04.739Z,1.13
2023-11-25T22:30:33.350Z,1.73
2023-11-25T22:33:02.047Z,1.55
2023-11-25T22:35:34.682Z,1.30
2023-11-25T22:38:11.027Z,2.05
2023-11-25T22:40:39.992Z,1.90
2023-11-25T22:43:08.417Z,2.15
2023-11-25T22:45:38.494Z,1.50
2023-11-25T22:48:07.250Z,1.15
2023-11-25T22:50:37.087Z,1.10
2023-11-25T22:53:05.484Z,1.58
2023-11-25T22:55:33.789Z,1.33
2023-11-25T22:58:02.153Z,0.80
2023-11-25T23:00:43.571Z,1.38
2023-11-25T23:03:12.106Z,0.98
2023-11-25T23:05:42.157Z,1.38
2023-11-25T23:08:10.739Z,1.35
2023-11-25T23:10:40.497Z,1.95
2023-11-25T23:13:08.872Z,1.83
2023-11-25T23:15:37.161Z,1.45
2023-11-25T23:18:05.840Z,2.10
2023-11-25T23:20:34.306Z,1.00
2023-11-25T23:23:04.289Z,1.48
2023-11-25T23:25:32.738Z,1.20
2023-11-25T23:28:01.036Z,0.90
2023-11-25T23:30:29.384Z,1.10
2023-11-25T23:32:58.123Z,1.48
2023-11-25T23:35:27.721Z,1.20
2023-11-25T23:37:56.202Z,1.70
2023-11-25T23:40:26.459Z,0.98
2023-11-25T23:42:54.871Z,0.60
2023-11-25T23:45:23.263Z,1.35
2023-11-25T23:47:51.754Z,0.30
2023-11-25T23:50:20.364Z,1.10
2023-11-25T23:52:48.933Z,1.15
2023-11-25T23:55:17.518Z,1.13
2023-11-25T23:57:47.325Z,0.98
